createdAt,value
2018-11-25T00:00:18.117Z,7.20
2018-11-25T00:02:45.806Z,7.20
2018-11-25T00:05:13.393Z,7.20
2018-11-25T00:07:41.258Z,7.20
2018-11-25T00:10:09.205Z,7.20
2018-11-25T00:12:36.799Z,7.20
2018-11-25T00:15:06.289Z,7.20
2018-11-25T00:17:33.913Z,7.20
2018-11-25T00:20:01.640Z,7.30
2018-11-25T00:22:35.196Z,7.30
2018-11-25T00:25:10.027Z,7.30
2018-11-25T00:27:37.644Z,7.30
2018-11-25T00:30:08.158Z,7.30
2018-11-25T00:32:35.808Z,7.30
2018-11-25T00:35:03.508Z,7.30
2018-11-25T00:37:31.081Z,7.30
2018-11-25T00:39:58.704Z,7.20
2018-11-25T00:42:26.355Z,7.20
2018-11-25T00:44:54.032Z,7.30
2018-11-25T00:47:21.720Z,7.30
2018-11-25T00:49:49.344Z,7.30
2018-11-25T00:52:16.925Z,7.30
2018-11-25T00:54:44.715Z,7.20
2018-11-25T00:57:12.366Z,7.20
2018-11-25T00:59:39.982Z,7.20
2018-11-25T01:02:07.650Z,7.20
2018-11-25T01:04:35.290Z,7.20
2018-11-25T01:07:02.898Z,7.20
2018-11-25T01:09:30.568Z,7.20
2018-11-25T01:11:58.150Z,7.20
2018-11-25T01:14:25.794Z,7.20
2018-11-25T01:16:53.748Z,7.20
2018-11-25T01:19:21.497Z,7.20
2018-11-25T01:21:49.186Z,7.20
2018-11-25T01:24:17.226Z,7.20
2018-11-25T01:26:44.858Z,7.30
2018-11-25T01:29:12.522Z,7.30
2018-11-25T01:31:40.505Z,7.30
2018-11-25T01:34:08.417Z,7.30
2018-11-25T01:36:36.148Z,7.30
2018-11-25T01:39:05.020Z,7.30
2018-11-25T01:41:32.710Z,7.30
2018-11-25T01:44:00.451Z,7.30
2018-11-25T01:46:28.085Z,7.30
2018-11-25T01:48:55.684Z,7.40
2018-11-25T01:51:23.368Z,7.40
2018-11-25T01:53:50.998Z,7.40
2018-11-25T01:56:18.630Z,7.40
2018-11-25T01:58:46.368Z,7.40
2018-11-25T02:01:14.102Z,7.40
2018-11-25T02:03:42.470Z,7.40
2018-11-25T02:06:10.100Z,7.40
2018-11-25T02:08:37.791Z,7.30
2018-11-25T02:11:05.986Z,7.30
2018-11-25T02:13:33.624Z,7.30
2018-11-25T02:16:01.292Z,7.30
2018-11-25T02:18:29.098Z,7.30
2018-11-25T02:20:56.827Z,7.30
2018-11-25T02:23:24.507Z,7.30
2018-11-25T02:25:52.346Z,7.30
2018-11-25T02:28:20.013Z,7.30
2018-11-25T02:30:47.701Z,7.30
2018-11-25T02:33:15.279Z,7.30
2018-11-25T02:35:42.894Z,7.30
2018-11-25T02:38:10.547Z,7.40
2018-11-25T02:40:38.134Z,7.40
2018-11-25T02:43:05.875Z,7.40
2018-11-25T02:45:33.488Z,7.40
2018-11-25T02:48:01.290Z,7.40
2018-11-25T02:50:30.549Z,7.40
2018-11-25T02:53:01.912Z,7.40
2018-11-25T02:55:29.549Z,7.40
2018-11-25T02:57:57.237Z,7.50
2018-11-25T03:00:24.866Z,7.50
2018-11-25T03:02:52.632Z,7.40
2018-11-25T03:05:20.448Z,7.40
2018-11-25T03:07:48.137Z,7.40
2018-11-25T03:10:15.802Z,7.40
2018-11-25T03:12:43.682Z,7.40
2018-11-25T03:15:12.436Z,7.40
2018-11-25T03:17:40.106Z,7.40
2018-11-25T03:20:12.735Z,7.40
2018-11-25T03:22:40.445Z,7.40
2018-11-25T03:25:12.893Z,7.40
2018-11-25T03:27:40.545Z,7.40
2018-11-25T03:30:09.850Z,7.40
2018-11-25T03:32:37.555Z,7.40
2018-11-25T03:35:05.534Z,7.40
2018-11-25T03:37:33.346Z,7.40
2018-11-25T03:40:00.927Z,7.40
2018-11-25T03:42:28.565Z,7.40
2018-11-25T03:44:56.284Z,7.40
2018-11-25T03:47:24.011Z,7.40
2018-11-25T03:49:51.661Z,7.50
2018-11-25T03:52:19.482Z,7.50
2018-11-25T03:54:47.132Z,7.50
2018-11-25T03:57:14.758Z,7.50
2018-11-25T03:59:42.412Z,7.50
2018-11-25T04:02:10.223Z,7.50
2018-11-25T04:04:37.832Z,7.50
2018-11-25T04:07:05.797Z,7.50
2018-11-25T04:09:33.435Z,7.50
2018-11-25T04:12:01.383Z,7.50
2018-11-25T04:14:28.921Z,7.60
2018-11-25T04:16:56.552Z,7.60
2018-11-25T04:19:24.449Z,7.60
2018-11-25T04:21:52.062Z,7.60
2018-11-25T04:24:19.681Z,7.60
2018-11-25T04:26:47.309Z,7.60
2018-11-25T04:29:15.111Z,7.60
2018-11-25T04:31:42.874Z,7.60
2018-11-25T04:34:10.523Z,7.60
2018-11-25T04:36:38.246Z,7.60
2018-11-25T04:39:08.295Z,7.60
2018-11-25T04:41:35.997Z,7.60
2018-11-25T04:44:03.820Z,7.60
2018-11-25T04:46:31.545Z,7.60
2018-11-25T04:48:59.221Z,7.60
2018-11-25T04:51:27.090Z,7.60
2018-11-25T04:53:54.751Z,7.60
2018-11-25T04:56:22.431Z,7.60
2018-11-25T04:58:50.093Z,7.60
2018-11-25T05:01:18.043Z,7.60
2018-11-25T05:03:45.805Z,7.60
2018-11-25T05:06:13.602Z,7.60
2018-11-25T05:08:41.205Z,7.60
2018-11-25T05:11:09.026Z,7.60
2018-11-25T05:13:36.735Z,7.60
2018-11-25T05:16:04.673Z,7.70
2018-11-25T05:18:32.321Z,7.60
2018-11-25T05:20:59.970Z,7.60
2018-11-25T05:23:27.758Z,7.60
2018-11-25T05:25:55.480Z,7.70
2018-11-25T05:28:23.097Z,7.60
2018-11-25T05:30:50.790Z,7.60
2018-11-25T05:33:19.077Z,7.70
2018-11-25T05:35:46.734Z,7.70
2018-11-25T05:38:14.443Z,7.60
2018-11-25T05:40:42.081Z,7.60
2018-11-25T05:43:21.442Z,7.70
2018-11-25T05:45:49.185Z,7.70
2018-11-25T05:48:16.895Z,7.70
2018-11-25T05:50:44.599Z,7.70
2018-11-25T05:53:12.382Z,7.70
2018-11-25T05:55:40.081Z,7.70
2018-11-25T05:58:07.696Z,7.70
2018-11-25T06:00:35.401Z,7.70
2018-11-25T06:03:03.110Z,7.70
2018-11-25T06:05:30.731Z,7.60
2018-11-25T06:07:58.444Z,7.70
2018-11-25T06:10:26.176Z,7.70
2018-11-25T06:12:53.798Z,7.70
2018-11-25T06:15:22.618Z,7.70
2018-11-25T06:17:50.322Z,7.70
2018-11-25T06:20:18.047Z,7.70
2018-11-25T06:22:46.326Z,7.70
2018-11-25T06:25:15.820Z,7.60
2018-11-25T06:27:43.556Z,7.70
2018-11-25T06:30:15.437Z,7.70
2018-11-25T06:32:43.519Z,7.70
2018-11-25T06:35:12.712Z,7.70
2018-11-25T06:37:40.619Z,7.70
2018-11-25T06:40:10.623Z,7.70
2018-11-25T06:42:38.671Z,7.70
2018-11-25T06:45:15.880Z,7.70
2018-11-25T06:47:43.827Z,7.70
2018-11-25T06:50:12.487Z,7.70
2018-11-25T06:52:40.147Z,7.70
2018-11-25T06:55:09.488Z,7.70
2018-11-25T06:57:37.873Z,7.70
2018-11-25T07:00:11.026Z,7.70
2018-11-25T07:02:38.830Z,7.70
2018-11-25T07:05:07.010Z,8.10
2018-11-25T07:07:34.969Z,7.70
2018-11-25T07:10:03.171Z,7.70
2018-11-25T07:12:31.298Z,7.70
2018-11-25T07:14:59.871Z,7.70
2018-11-25T07:17:27.462Z,7.70
2018-11-25T07:19:55.182Z,7.70
2018-11-25T07:22:22.953Z,7.70
2018-11-25T07:24:50.899Z,7.70
2018-11-25T07:27:18.626Z,7.50
2018-11-25T07:29:46.360Z,7.70
2018-11-25T07:32:14.042Z,7.70
2018-11-25T07:34:42.049Z,7.70
2018-11-25T07:37:09.798Z,7.70
2018-11-25T07:39:37.548Z,7.70
2018-11-25T07:42:05.340Z,7.70
2018-11-25T07:44:33.284Z,7.70
2018-11-25T07:47:00.911Z,7.70
2018-11-25T07:49:28.702Z,7.80
2018-11-25T07:51:56.348Z,7.70
2018-11-25T07:54:23.993Z,7.80
2018-11-25T07:56:51.711Z,7.80
2018-11-25T07:59:19.367Z,7.70
2018-11-25T08:01:47.003Z,7.80
2018-11-25T08:04:14.716Z,7.80
2018-11-25T08:06:42.408Z,7.80
2018-11-25T08:09:11.280Z,7.80
2018-11-25T08:11:39.194Z,7.80
2018-11-25T08:14:06.914Z,7.80
2018-11-25T08:16:34.778Z,7.80
2018-11-25T08:19:02.570Z,7.80
2018-11-25T08:21:30.243Z,7.80
2018-11-25T08:23:58.013Z,7.80
2018-11-25T08:26:25.686Z,7.80
2018-11-25T08:28:53.367Z,7.80
2018-11-25T08:31:21.227Z,7.80
2018-11-25T08:33:49.135Z,7.80
2018-11-25T08:36:16.775Z,7.80
2018-11-25T08:38:44.516Z,7.80
2018-11-25T08:41:12.367Z,7.80
2018-11-25T08:43:40.249Z,7.80
2018-11-25T08:46:07.980Z,7.80
2018-11-25T08:48:36.535Z,7.90
2018-11-25T08:51:04.338Z,7.90
2018-11-25T08:53:32.022Z,7.90
2018-11-25T08:55:59.797Z,7.80
2018-11-25T08:58:27.430Z,7.90
2018-11-25T09:00:55.091Z,7.90
2018-11-25T09:03:22.997Z,7.90
2018-11-25T09:05:50.616Z,7.90
2018-11-25T09:08:18.325Z,7.90
2018-11-25T09:10:46.039Z,7.90
2018-11-25T09:13:13.784Z,7.90
2018-11-25T09:15:41.975Z,7.80
2018-11-25T09:18:10.031Z,7.90
2018-11-25T09:20:38.001Z,7.90
2018-11-25T09:23:05.831Z,7.90
2018-11-25T09:25:33.401Z,7.90
2018-11-25T09:28:02.340Z,7.90
2018-11-25T09:30:31.206Z,7.90
2018-11-25T09:32:58.996Z,7.90
2018-11-25T09:35:26.666Z,7.90
2018-11-25T09:37:54.670Z,7.80
2018-11-25T09:40:23.520Z,7.90
2018-11-25T09:42:51.207Z,7.90
2018-11-25T09:45:19.731Z,8.00
2018-11-25T09:47:47.726Z,7.90
2018-11-25T09:50:17.559Z,8.00
2018-11-25T09:52:45.433Z,8.00
2018-11-25T09:55:14.158Z,7.90
2018-11-25T09:57:43.023Z,8.00
2018-11-25T10:00:23.743Z,8.00
2018-11-25T10:02:51.433Z,8.00
2018-11-25T10:05:19.653Z,8.00
2018-11-25T10:07:48.357Z,8.00
2018-11-25T10:10:18.487Z,8.00
2018-11-25T10:12:47.555Z,8.00
2018-11-25T10:15:16.387Z,8.00
2018-11-25T10:17:44.063Z,8.00
2018-11-25T10:20:14.690Z,8.00
2018-11-25T10:22:42.646Z,8.00
2018-11-25T10:25:11.438Z,8.00
2018-11-25T10:27:39.100Z,8.00
2018-11-25T10:30:10.627Z,8.10
2018-11-25T10:32:38.316Z,8.00
2018-11-25T10:35:06.680Z,8.00
2018-11-25T10:37:34.446Z,8.00
2018-11-25T10:40:02.161Z,8.10
2018-11-25T10:42:30.333Z,8.00
2018-11-25T10:44:58.238Z,8.00
2018-11-25T10:47:26.073Z,8.00
2018-11-25T10:49:54.098Z,8.00
2018-11-25T10:52:22.039Z,8.10
2018-11-25T10:54:50.095Z,8.00
2018-11-25T10:57:17.919Z,8.10
2018-11-25T10:59:45.600Z,8.00
2018-11-25T11:02:18.901Z,8.10
2018-11-25T11:04:52.749Z,8.10
2018-11-25T11:07:22.363Z,8.10
2018-11-25T11:09:50.869Z,8.10
2018-11-25T11:12:18.740Z,8.10
2018-11-25T11:14:46.377Z,8.10
2018-11-25T11:17:14.018Z,8.10
2018-11-25T11:19:41.826Z,8.10
2018-11-25T11:22:09.660Z,8.10
2018-11-25T11:24:37.371Z,8.10
2018-11-25T11:27:05.112Z,8.10
2018-11-25T11:29:32.958Z,8.10
2018-11-25T11:32:01.119Z,8.10
2018-11-25T11:34:28.984Z,8.10
2018-11-25T11:36:57.340Z,8.10
2018-11-25T11:39:24.991Z,8.10
2018-11-25T11:41:53.002Z,8.10
2018-11-25T11:44:20.784Z,8.10
2018-11-25T11:46:48.651Z,8.10
2018-11-25T11:49:16.611Z,8.10
2018-11-25T11:51:44.538Z,8.20
2018-11-25T11:54:12.354Z,8.10
2018-11-25T11:56:40.449Z,8.10
2018-11-25T11:59:07.814Z,8.10
2018-11-25T12:01:35.518Z,8.10
2018-11-25T12:04:03.385Z,8.20
2018-11-25T12:06:31.482Z,8.20
2018-11-25T12:08:59.534Z,8.20
2018-11-25T12:11:27.892Z,8.20
2018-11-25T12:13:56.499Z,8.20
2018-11-25T12:16:24.288Z,8.20
2018-11-25T12:18:52.358Z,8.20
2018-11-25T12:21:20.371Z,8.20
2018-11-25T12:23:48.210Z,8.20
2018-11-25T12:26:16.010Z,8.20
2018-11-25T12:28:43.773Z,8.20
2018-11-25T12:31:11.484Z,8.30
2018-11-25T12:33:39.225Z,8.20
2018-11-25T12:36:06.905Z,8.20
2018-11-25T12:38:34.598Z,8.30
2018-11-25T12:41:02.409Z,8.30
2018-11-25T12:43:30.340Z,8.30
2018-11-25T12:45:58.263Z,8.30
2018-11-25T12:48:26.231Z,8.30
2018-11-25T12:50:54.298Z,8.30
2018-11-25T12:53:22.289Z,8.30
2018-11-25T12:55:50.214Z,8.30
2018-11-25T12:58:18.268Z,8.30
2018-11-25T13:00:47.584Z,8.30
2018-11-25T13:03:15.289Z,8.30
2018-11-25T13:05:46.162Z,8.30
2018-11-25T13:08:12.987Z,8.30
2018-11-25T13:10:41.124Z,8.30
2018-11-25T13:13:09.701Z,8.30
2018-11-25T13:15:37.500Z,8.30
2018-11-25T13:18:06.552Z,8.30
2018-11-25T13:20:34.424Z,8.30
2018-11-25T13:23:02.304Z,8.30
2018-11-25T13:25:30.055Z,8.30
2018-11-25T13:27:57.769Z,8.30
2018-11-25T13:30:28.107Z,8.30
2018-11-25T13:32:56.784Z,8.30
2018-11-25T13:35:25.747Z,8.30
2018-11-25T13:37:53.795Z,8.30
2018-11-25T13:40:21.571Z,8.30
2018-11-25T13:42:49.440Z,8.30
2018-11-25T13:45:17.341Z,8.30
2018-11-25T13:47:45.240Z,8.30
2018-11-25T13:50:13.272Z,8.30
2018-11-25T13:52:40.816Z,8.30
2018-11-25T13:55:15.079Z,8.30
2018-11-25T13:57:43.009Z,8.20
2018-11-25T14:00:15.795Z,8.30
2018-11-25T14:02:43.492Z,8.20
2018-11-25T14:05:11.581Z,8.20
2018-11-25T14:07:39.298Z,8.20
2018-11-25T14:10:11.103Z,8.20
2018-11-25T14:12:38.953Z,8.20
2018-11-25T14:15:09.315Z,8.20
2018-11-25T14:17:37.009Z,8.20
2018-11-25T14:20:06.661Z,8.20
2018-11-25T14:22:34.788Z,8.20
2018-11-25T14:25:02.601Z,8.20
2018-11-25T14:27:30.413Z,8.20
2018-11-25T14:29:58.426Z,8.20
2018-11-25T14:32:26.160Z,8.20
2018-11-25T14:34:56.766Z,8.20
2018-11-25T14:37:24.696Z,8.20
2018-11-25T14:39:52.675Z,8.20
2018-11-25T14:42:20.509Z,8.20
2018-11-25T14:44:48.377Z,8.30
2018-11-25T14:47:16.033Z,8.20
2018-11-25T14:49:43.724Z,8.20
2018-11-25T14:52:11.499Z,8.20
2018-11-25T14:54:39.346Z,8.20
2018-11-25T14:57:06.872Z,8.20
2018-11-25T14:59:34.744Z,8.30
2018-11-25T15:02:02.480Z,8.30
2018-11-25T15:04:36.074Z,8.30
2018-11-25T15:06:57.878Z,8.30
2018-11-25T15:09:25.703Z,8.30
2018-11-25T15:11:53.589Z,8.30
2018-11-25T15:14:21.234Z,8.20
2018-11-25T15:16:49.030Z,8.30
2018-11-25T15:19:16.948Z,8.30
2018-11-25T15:21:44.712Z,8.30
2018-11-25T15:24:13.255Z,8.30
2018-11-25T15:26:41.163Z,8.30
2018-11-25T15:29:09.182Z,8.40
2018-11-25T15:31:36.951Z,8.30
2018-11-25T15:34:04.746Z,8.30
2018-11-25T15:36:32.524Z,8.20
2018-11-25T15:39:00.269Z,8.30
2018-11-25T15:41:28.047Z,8.30
2018-11-25T15:43:55.848Z,8.30
2018-11-25T15:46:23.661Z,8.30
2018-11-25T15:48:51.793Z,8.30
2018-11-25T15:51:20.194Z,8.30
2018-11-25T15:53:48.313Z,8.30
2018-11-25T15:56:16.372Z,8.30
2018-11-25T15:58:45.158Z,8.30
2018-11-25T16:01:13.099Z,8.20
2018-11-25T16:03:41.190Z,8.20
2018-11-25T16:06:15.520Z,8.30
2018-11-25T16:08:43.227Z,8.30
2018-11-25T16:11:10.858Z,8.20
2018-11-25T16:13:38.548Z,8.20
2018-11-25T16:16:06.329Z,8.20
2018-11-25T16:18:33.947Z,8.20
2018-11-25T16:21:02.034Z,8.20
2018-11-25T16:23:29.789Z,8.20
2018-11-25T16:26:00.249Z,8.20
2018-11-25T16:28:35.548Z,8.20
2018-11-25T16:31:03.609Z,8.20
2018-11-25T16:33:31.173Z,8.20
2018-11-25T16:35:58.910Z,8.20
2018-11-25T16:38:26.618Z,8.20
2018-11-25T16:40:54.312Z,8.20
2018-11-25T16:43:22.097Z,8.20
2018-11-25T16:45:49.701Z,8.20
2018-11-25T16:48:17.612Z,8.20
2018-11-25T16:50:45.997Z,8.20
2018-11-25T16:53:13.874Z,8.20
2018-11-25T16:55:41.703Z,8.20
2018-11-25T16:58:09.699Z,7.90
2018-11-25T17:00:37.565Z,8.20
2018-11-25T17:03:06.046Z,8.20
2018-11-25T17:05:35.745Z,8.20
2018-11-25T17:08:09.937Z,8.20
2018-11-25T17:10:37.596Z,8.20
2018-11-25T17:13:06.097Z,8.20
2018-11-25T17:15:33.910Z,8.20
2018-11-25T17:18:01.585Z,8.20
2018-11-25T17:20:29.191Z,8.20
2018-11-25T17:22:56.926Z,8.20
2018-11-25T17:25:24.799Z,8.10
2018-11-25T17:27:52.712Z,8.20
2018-11-25T17:30:20.750Z,8.20
2018-11-25T17:32:48.846Z,8.20
2018-11-25T17:35:18.004Z,8.20
2018-11-25T17:37:45.712Z,8.20
2018-11-25T17:40:13.394Z,8.20
2018-11-25T17:42:41.103Z,8.20
2018-11-25T17:45:10.005Z,8.20
2018-11-25T17:47:37.749Z,8.20
2018-11-25T17:50:13.845Z,8.20
2018-11-25T17:52:41.524Z,8.20
2018-11-25T17:55:10.476Z,8.20
2018-11-25T17:57:38.322Z,8.20
2018-11-25T18:00:18.152Z,8.20
2018-11-25T18:02:45.926Z,8.20
2018-11-25T18:05:13.822Z,8.20
2018-11-25T18:07:41.694Z,8.20
2018-11-25T18:10:11.416Z,8.20
2018-11-25T18:12:39.119Z,8.20
2018-11-25T18:15:12.959Z,8.20
2018-11-25T18:17:43.110Z,8.20
2018-11-25T18:20:11.143Z,8.10
2018-11-25T18:22:42.919Z,8.10
2018-11-25T18:25:10.592Z,8.10
2018-11-25T18:27:38.235Z,8.10
2018-11-25T18:30:09.285Z,8.10
2018-11-25T18:32:37.181Z,8.10
2018-11-25T18:35:05.839Z,8.10
2018-11-25T18:37:33.650Z,8.10
2018-11-25T18:40:01.655Z,8.10
2018-11-25T18:42:29.428Z,8.10
2018-11-25T18:44:57.125Z,8.10
2018-11-25T18:47:24.932Z,8.10
2018-11-25T18:49:52.743Z,8.10
2018-11-25T18:52:20.440Z,8.10
2018-11-25T18:54:47.735Z,8.10
2018-11-25T18:57:15.676Z,8.00
2018-11-25T18:59:43.433Z,8.00
2018-11-25T19:02:38.091Z,8.00
2018-11-25T19:05:06.399Z,8.00
2018-11-25T19:07:34.210Z,8.00
2018-11-25T19:10:02.036Z,8.00
2018-11-25T19:12:29.741Z,8.00
2018-11-25T19:14:57.505Z,8.00
2018-11-25T19:17:25.212Z,8.00
2018-11-25T19:19:52.820Z,8.10
2018-11-25T19:22:20.496Z,8.10
2018-11-25T19:24:48.170Z,8.10
2018-11-25T19:27:15.992Z,8.10
2018-11-25T19:29:43.728Z,8.10
2018-11-25T19:32:11.375Z,8.10
2018-11-25T19:34:39.173Z,8.10
2018-11-25T19:37:06.856Z,8.10
2018-11-25T19:39:34.586Z,8.10
2018-11-25T19:42:02.119Z,8.10
2018-11-25T19:44:29.974Z,8.10
2018-11-25T19:46:57.739Z,8.10
2018-11-25T19:49:25.503Z,8.10
2018-11-25T19:51:53.195Z,8.10
2018-11-25T19:54:21.052Z,8.10
2018-11-25T19:56:49.128Z,8.20
2018-11-25T19:59:17.030Z,8.10
2018-11-25T20:01:45.063Z,8.20
2018-11-25T20:04:12.767Z,8.20
2018-11-25T20:06:40.640Z,8.10
2018-11-25T20:09:09.308Z,8.10
2018-11-25T20:11:37.182Z,8.10
2018-11-25T20:14:05.435Z,8.20
2018-11-25T20:16:38.508Z,8.20
2018-11-25T20:19:06.151Z,8.10
2018-11-25T20:21:39.370Z,8.10
2018-11-25T20:24:07.225Z,8.20
2018-11-25T20:26:35.124Z,8.10
2018-11-25T20:29:03.197Z,8.10
2018-11-25T20:31:31.376Z,8.10
2018-11-25T20:33:59.069Z,8.20
2018-11-25T20:36:26.942Z,8.20
2018-11-25T20:39:00.274Z,8.20
2018-11-25T20:41:28.177Z,8.20
2018-11-25T20:43:55.946Z,8.20
2018-11-25T20:46:29.371Z,8.20
2018-11-25T20:48:57.377Z,8.20
2018-11-25T20:51:30.833Z,8.20
2018-11-25T20:53:59.532Z,8.20
2018-11-25T20:56:27.360Z,8.20
2018-11-25T20:58:54.957Z,8.20
2018-11-25T21:01:22.827Z,8.30
2018-11-25T21:03:50.861Z,8.20
2018-11-25T21:06:18.911Z,8.20
2018-11-25T21:08:46.743Z,8.30
2018-11-25T21:11:14.516Z,8.30
2018-11-25T21:13:42.202Z,8.30
2018-11-25T21:16:10.080Z,8.30
2018-11-25T21:18:38.115Z,8.30
2018-11-25T21:21:05.985Z,8.70
2018-11-25T21:23:33.687Z,8.30
2018-11-25T21:26:01.594Z,8.30
2018-11-25T21:28:29.427Z,8.30
2018-11-25T21:30:57.275Z,8.30
2018-11-25T21:33:25.231Z,8.30
2018-11-25T21:35:52.953Z,8.30
2018-11-25T21:38:20.694Z,8.30
2018-11-25T21:40:48.478Z,8.30
2018-11-25T21:43:16.228Z,8.30
2018-11-25T21:45:43.887Z,8.30
2018-11-25T21:48:11.601Z,8.30
2018-11-25T21:50:39.414Z,8.40
2018-11-25T21:53:07.089Z,8.30
2018-11-25T21:55:34.636Z,8.30
2018-11-25T21:58:02.296Z,8.30
2018-11-25T22:00:30.092Z,8.30
2018-11-25T22:02:57.785Z,8.30
2018-11-25T22:05:25.451Z,8.40
2018-11-25T22:07:53.283Z,8.30
2018-11-25T22:10:21.138Z,8.30
2018-11-25T22:12:49.351Z,8.30
2018-11-25T22:15:18.431Z,8.30
2018-11-25T22:17:46.175Z,8.30
2018-11-25T22:20:14.570Z,8.30
2018-11-25T22:22:42.605Z,8.40
2018-11-25T22:25:11.343Z,8.30
2018-11-25T22:27:39.040Z,8.30
2018-11-25T22:30:09.423Z,8.40
2018-11-25T22:32:37.210Z,8.30
2018-11-25T22:35:07.345Z,8.40
2018-11-25T22:37:35.024Z,8.40
2018-11-25T22:40:02.745Z,8.40
2018-11-25T22:42:30.540Z,8.40
2018-11-25T22:44:58.408Z,8.40
2018-11-25T22:47:26.126Z,8.40
2018-11-25T22:49:53.867Z,8.40
2018-11-25T22:52:21.566Z,8.40
2018-11-25T22:54:49.502Z,8.40
2018-11-25T22:57:17.406Z,8.40
2018-11-25T22:59:45.243Z,8.50
2018-11-25T23:02:13.134Z,8.50
2018-11-25T23:04:52.335Z,8.40
2018-11-25T23:07:20.045Z,8.40
2018-11-25T23:09:47.802Z,8.50
2018-11-25T23:12:15.721Z,8.50
2018-11-25T23:14:43.424Z,8.40
2018-11-25T23:17:11.080Z,8.40
2018-11-25T23:19:38.826Z,8.40
2018-11-25T23:22:06.518Z,8.40
2018-11-25T23:24:34.228Z,8.70
2018-11-25T23:27:01.952Z,8.40
2018-11-25T23:29:29.616Z,8.50
2018-11-25T23:31:57.314Z,8.40
2018-11-25T23:34:24.985Z,8.40
2018-11-25T23:36:52.985Z,8.40
2018-11-25T23:39:20.671Z,8.50
2018-11-25T23:41:48.318Z,8.40
2018-11-25T23:44:15.987Z,8.50
2018-11-25T23:46:43.902Z,8.50
2018-11-25T23:49:11.588Z,8.50
2018-11-25T23:51:39.261Z,8.40
2018-11-25T23:54:07.116Z,8.50
2018-11-25T23:56:34.787Z,8.50
2018-11-25T23:59:02.487Z,8.40
